M I D A S
Marine Information and Data Acquisition System
Tripno 758 of the Zeeleeuw from 2004-07-23 09:13:46 to 2004-07-23 13:34:26
Back to CruiseResearch ActivitiesStationsMapUnderway DataData graphs

EquipmentUnitsComment
TimeDGPSUTC
LatitudeDGPSDM.mWGS84
LongitudeDGPSDM.mWGS84
HeadingGyrodeg 
SOGDGPSknotsSpeed over ground
COGDGPSdegCourse over ground
DepthEcho soundermeters200 kHz
Missing or incorrect values are displayed as -999
Navigation data collected by the RV Zeeleeuw from 2004-07-23 09:13:46 to 2004-07-23 13:34:26
                                                                                    Next 1000 lines
Time Latitude Longitude Heading SOG COG Depth
2004-07-23 09:13:54 51°13.598 2°56.096 128.4 0.1 77 7
2004-07-23 09:14:00 51°13.598 2°56.096 128.1 0.1 74 7
2004-07-23 09:14:06 51°13.598 2°56.097 127.2 0.1 87 7
2004-07-23 09:14:10 51°13.598 2°56.097 125.6 0.1 111 7
2004-07-23 09:14:14 51°13.598 2°56.097 124.1 0.1 95 7.1
2004-07-23 09:14:20 51°13.598 2°56.097 122.7   95 7.1
2004-07-23 09:14:23 51°13.598 2°56.097 121.3 0.1 206 7.1
2004-07-23 09:14:30 51°13.598 2°56.097 120.5 0.1 188 7.1
2004-07-23 09:14:34 51°13.598 2°56.097 119.8 0.1 187 7.1
2004-07-23 09:14:40 51°13.598 2°56.097 118.9   145 7.1
2004-07-23 09:14:44 51°13.597 2°56.097 117.9 0.1 174 7.2
2004-07-23 09:14:50 51°13.597 2°56.097 116.9 0.1 187 7.1
2004-07-23 09:14:54 51°13.597 2°56.097 115.8   186 7.1
2004-07-23 09:15:00 51°13.597 2°56.096 114.8 0.1 237 7.3
2004-07-23 09:15:04 51°13.597 2°56.095 114.4 0.3 289 7
2004-07-23 09:15:08 51°13.597 2°56.094 114.3 0.8 287 7.1
2004-07-23 09:15:14 51°13.598 2°56.092 114.3 1.1 296 7.1
2004-07-23 09:15:18 51°13.599 2°56.089 114.3 1.4 292 7.1
2004-07-23 09:15:24 51°13.6 2°56.085 114.5 1.7 295 6.7
2004-07-23 09:15:30 51°13.601 2°56.079 114.8 2.2 294 -999
2004-07-23 09:15:36 51°13.603 2°56.073 115.1 2.4 295 -999
2004-07-23 09:15:39 51°13.604 2°56.07 115.2 2.7 294 -999
2004-07-23 09:15:46 51°13.606 2°56.062 115.4 2.8 294 -999
2004-07-23 09:15:50 51°13.608 2°56.057 115.7 3 294 -999
2004-07-23 09:15:56 51°13.61 2°56.049 116.1 3.1 294 -999
2004-07-23 09:16:00 51°13.611 2°56.044 116.4 3.2 294 -999
2004-07-23 09:16:06 51°13.614 2°56.036 116.7 3.3 295 -999
2004-07-23 09:16:10 51°13.615 2°56.031 116.9 3.5 295 -999
2004-07-23 09:16:16 51°13.617 2°56.022 117.3 3.5 295 -999
2004-07-23 09:16:20 51°13.619 2°56.016 117.6 3.6 295 -999
2004-07-23 09:16:26 51°13.622 2°56.007 118.1 3.7 295 -999
2004-07-23 09:16:30 51°13.624 2°56.001 118.6 3.8 296 -999
2004-07-23 09:16:36 51°13.626 2°55.992 119.2 3.9 296 -999
2004-07-23 09:16:40 51°13.629 2°55.986 119.7 4 297 -999
2004-07-23 09:16:46 51°13.632 2°55.976 120 4.1 297 -999
2004-07-23 09:16:50 51°13.634 2°55.97 120.2 4.2 298 -999
2004-07-23 09:16:56 51°13.637 2°55.959 120.3 4.2 297 -999
2004-07-23 09:17:00 51°13.639 2°55.953 119.9 4.3 297 -999
2004-07-23 09:17:06 51°13.643 2°55.942 119.3 4.3 297 -999
2004-07-23 09:17:10 51°13.645 2°55.935 118.6 4.3 296 -999
2004-07-23 09:17:16 51°13.648 2°55.925 117.9 4.4 296 -999
2004-07-23 09:17:20 51°13.65 2°55.918 117.2 4.4 296 -999
2004-07-23 09:17:26 51°13.653 2°55.908 116.4 4.4 295 -999
2004-07-23 09:17:30 51°13.655 2°55.901 115.4 4.4 294 -999
2004-07-23 09:17:36 51°13.658 2°55.89 114.4 4.4 293 -999
2004-07-23 09:17:40 51°13.66 2°55.882 113.3 4.5 293 -999
2004-07-23 09:17:46 51°13.662 2°55.871 112.2 4.5 292 -999
2004-07-23 09:17:50 51°13.664 2°55.864 111 4.5 291 -999
2004-07-23 09:17:55 51°13.666 2°55.855 109.7 4.5 290 -999
2004-07-23 09:17:59 51°13.668 2°55.847 108.4 4.5 288 -999
2004-07-23 09:18:05 51°13.67 2°55.836 106.9 4.5 287 -999
2004-07-23 09:18:10 51°13.671 2°55.826 105.4 4.5 285 -999
2004-07-23 09:18:15 51°13.673 2°55.817 103.8 4.5 284 -999
2004-07-23 09:18:19 51°13.674 2°55.809 102.1 4.5 281 -999
2004-07-23 09:18:25 51°13.675 2°55.797 100.3 4.5 280 -999
2004-07-23 09:18:30 51°13.676 2°55.788 98.5 4.2 278 -999
2004-07-23 09:18:35 51°13.677 2°55.779 97 4.1 277 -999
2004-07-23 09:18:39 51°13.677 2°55.773 95.6 3.8 277 -999
2004-07-23 09:18:45 51°13.678 2°55.764 94.1 3.3 274 -999
2004-07-23 09:18:50 51°13.678 2°55.758 92.1 2.7 275 -999
2004-07-23 09:18:54 51°13.678 2°55.754 90.3 2.3 274 11
2004-07-23 09:18:59 51°13.678 2°55.751 88 1.8 273 11.3
2004-07-23 09:19:03 51°13.679 2°55.749 85.4 1 279 11.5
2004-07-23 09:19:10 51°13.679 2°55.748 81 0.4 319 11.7
2004-07-23 09:19:14 51°13.68 2°55.748 75.4 0.4 20 11.8
2004-07-23 09:19:20 51°13.681 2°55.749 69.5 0.7 40 11.9
2004-07-23 09:19:24 51°13.682 2°55.751 62.9 1.1 43 12
2004-07-23 09:19:30 51°13.684 2°55.754 56 1.5 40 12.2
2004-07-23 09:19:34 51°13.685 2°55.755 49.1 1.9 35 12.6
2004-07-23 09:19:39 51°13.688 2°55.758 42 2.2 29 13
2004-07-23 09:19:42 51°13.69 2°55.759 34.8 2.5 20 13.1
2004-07-23 09:19:49 51°13.695 2°55.761 27.5 3 12 13.7
2004-07-23 09:19:53 51°13.699 2°55.762 21 3.4 4 13.7
2004-07-23 09:19:59 51°13.705 2°55.761 10.3 3.7 358 13.3
2004-07-23 09:20:04 51°13.711 2°55.759 1.2 4.2 347 12.8
2004-07-23 09:20:09 51°13.717 2°55.756 351.8 4.6 337 11.8
2004-07-23 09:20:13 51°13.721 2°55.752 342.3 4.7 331 10.8
2004-07-23 09:20:19 51°13.728 2°55.745 334.7 4.7 328 9.9
2004-07-23 09:20:25 51°13.735 2°55.737 330.1 5.2 324 9.4
2004-07-23 09:20:29 51°13.74 2°55.731 327.8 5.6 323 8.4
2004-07-23 09:20:34 51°13.746 2°55.723 327.3 5.9 323 8.3
2004-07-23 09:20:39 51°13.753 2°55.715 327.5 6.2 323 8
2004-07-23 09:20:42 51°13.758 2°55.71 328.1 6.5 324 8
2004-07-23 09:20:49 51°13.768 2°55.697 328.5 6.8 324 8.7
2004-07-23 09:20:53 51°13.774 2°55.69 328.7 7 325 8.3
2004-07-23 09:20:59 51°13.784 2°55.68 329.7 7.2 326 8.5
2004-07-23 09:21:03 51°13.791 2°55.672 330.7 7.4 327 8.7
2004-07-23 09:21:09 51°13.802 2°55.662 332.1 7.7 329 9.3
2004-07-23 09:21:14 51°13.811 2°55.653 332.6 7.8 329 9.1
2004-07-23 09:21:19 51°13.821 2°55.644 333 7.9 330 9.2
2004-07-23 09:21:23 51°13.829 2°55.637 333.6 8.1 330 9.1
2004-07-23 09:21:30 51°13.843 2°55.625 334.8 8.3 333 9.1
2004-07-23 09:21:34 51°13.852 2°55.619 336.4 8.4 334 8.6
2004-07-23 09:21:39 51°13.862 2°55.611 338.2 8.5 335 9.2
2004-07-23 09:21:43 51°13.871 2°55.605 339.7 8.6 337 9.7
2004-07-23 09:21:49 51°13.884 2°55.596 340.6 8.7 337 9.4
2004-07-23 09:21:54 51°13.896 2°55.589 341.1 8.8 338 9
2004-07-23 09:21:59 51°13.907 2°55.581 341.7 8.8 338 8.6
2004-07-23 09:22:03 51°13.916 2°55.576 342.2 8.8 339 9.2
2004-07-23 09:22:09 51°13.93 2°55.568 342.9 8.8 339 9.5
2004-07-23 09:22:14 51°13.941 2°55.561 343.3 8.9 340 9.7
2004-07-23 09:22:19 51°13.953 2°55.554 343.4 8.9 339 10.3
2004-07-23 09:22:26 51°13.969 2°55.545 344 8.9 341 10.5
2004-07-23 09:22:30 51°13.979 2°55.539 344.1 9 340 10.5
2004-07-23 09:22:34 51°13.988 2°55.534 343.7 9 340 10.8
2004-07-23 09:22:38 51°13.998 2°55.528 343.3 9.1 339 10.8
2004-07-23 09:22:44 51°14.012 2°55.519 343 9.2 339 10.4
2004-07-23 09:22:50 51°14.026 2°55.511 343.8 9.2 340 10.4
2004-07-23 09:22:54 51°14.036 2°55.505 344.2 9.3 339 10.5
2004-07-23 09:23:00 51°14.05 2°55.496 342.9 9.4 338 10.4
2004-07-23 09:23:04 51°14.06 2°55.49 342.6 9.4 338 10.5
2004-07-23 09:23:10 51°14.075 2°55.48 342.7 9.6 337 10.5
2004-07-23 09:23:14 51°14.084 2°55.473 341.8 9.6 336 10.4
2004-07-23 09:23:20 51°14.099 2°55.463 341.7 9.7 337 10.3
2004-07-23 09:23:22 51°14.104 2°55.46 341.6 9.8 336 10.5
2004-07-23 09:23:30 51°14.124 2°55.444 340.3 9.9 334 10.5
2004-07-23 09:23:34 51°14.134 2°55.436 338.2 10 332 10.5
2004-07-23 09:23:39 51°14.146 2°55.425 336.8 10.1 331 10.5
2004-07-23 09:23:43 51°14.156 2°55.416 336.1 10.2 331 10.9
2004-07-23 09:23:50 51°14.173 2°55.4 335.8 10.4 327 10.7
2004-07-23 09:23:54 51°14.183 2°55.389 332.7 10.6 324 10.8
2004-07-23 09:23:59 51°14.194 2°55.373 326.9 10.8 320 10.8
2004-07-23 09:24:02 51°14.201 2°55.363 323.8 11.1 318 10.9
2004-07-23 09:24:10 51°14.219 2°55.336 322.4 11.3 316 10.9
2004-07-23 09:24:14 51°14.228 2°55.321 320.6 11.5 314 10.8
2004-07-23 09:24:18 51°14.237 2°55.306 317.9 11.7 313 10.8
2004-07-23 09:24:24 51°14.25 2°55.283 317 11.8 312 10.9
2004-07-23 09:24:30 51°14.263 2°55.259 316.7 12 311 10.3
2004-07-23 09:24:35 51°14.274 2°55.238 314.9 12.1 310 10.3
2004-07-23 09:24:40 51°14.285 2°55.217 313.7 12.2 309 10.2
2004-07-23 09:24:45 51°14.296 2°55.196 313.4 12.3 309 10.2
2004-07-23 09:24:50 51°14.307 2°55.175 314.5 12.5 312 10
2004-07-23 09:24:54 51°14.317 2°55.159 317.6 12.6 315 10.1
2004-07-23 09:25:00 51°14.332 2°55.135 318.7 12.7 314 10.1
2004-07-23 09:25:06 51°14.348 2°55.112 319.3 12.7 315 9.9
2004-07-23 09:25:10 51°14.358 2°55.096 320.2 12.8 316 9.5
2004-07-23 09:25:14 51°14.368 2°55.082 321.4 12.8 319 9.7
2004-07-23 09:25:20 51°14.384 2°55.059 323.3 12.9 318 9.8
2004-07-23 09:25:24 51°14.395 2°55.043 323.3 13 318 9.8
2004-07-23 09:25:30 51°14.411 2°55.019 322.9 13.1 316 10
2004-07-23 09:25:34 51°14.422 2°55.003 322.6 13.2 316 9.8
2004-07-23 09:25:39 51°14.434 2°54.981 321.5 13.3 313 9.7
2004-07-23 09:25:44 51°14.446 2°54.959 318.8 13.4 311 9.7
2004-07-23 09:25:50 51°14.461 2°54.932 317.9 13.3 313 9.2
2004-07-23 09:25:54 51°14.471 2°54.916 320.1 13.3 315 9.4
2004-07-23 09:25:59 51°14.486 2°54.897 324.3 13.2 319 9.2
2004-07-23 09:26:04 51°14.5 2°54.879 327.4 13.2 321 9.1
2004-07-23 09:26:10 51°14.517 2°54.858 330.9 13.1 324 8.9
2004-07-23 09:26:14 51°14.529 2°54.845 332.5 13 324 8.8
2004-07-23 09:26:20 51°14.547 2°54.825 333.2 13 325 8.9
2004-07-23 09:26:26 51°14.565 2°54.805 333.6 13 325 9
2004-07-23 09:26:30 51°14.576 2°54.792 333.7 13.1 325 8.9
2004-07-23 09:26:34 51°14.588 2°54.779 333.7 13.1 326 8.8
2004-07-23 09:26:40 51°14.606 2°54.76 334.2 13.1 326 8.7
2004-07-23 09:26:44 51°14.619 2°54.747 335.2 13.1 327 8.7
2004-07-23 09:26:50 51°14.637 2°54.73 336.2 13 329 8.6
2004-07-23 09:26:54 51°14.65 2°54.718 337.5 13 330 8.6
2004-07-23 09:27:00 51°14.669 2°54.702 339.1 13 331 8.6
2004-07-23 09:27:04 51°14.681 2°54.691 340.1 13 332 8.7
2004-07-23 09:27:10 51°14.7 2°54.675 340.6 13 332 8.7
2004-07-23 09:27:14 51°14.713 2°54.664 341.1 13 332 8.8
2004-07-23 09:27:20 51°14.732 2°54.648 341.2 13 332 8.6
2004-07-23 09:27:26 51°14.752 2°54.631 341.4 13.1 332 8.6
2004-07-23 09:27:30 51°14.764 2°54.621 341.2 13.1 332 8.6
2004-07-23 09:27:34 51°14.777 2°54.609 341 13 331 8.5
2004-07-23 09:27:40 51°14.796 2°54.592 340.2 13 330 8.4
2004-07-23 09:27:44 51°14.808 2°54.58 339.4 13 330 8.4
2004-07-23 09:27:50 51°14.827 2°54.562 338.1 13 328 8.4
2004-07-23 09:27:54 51°14.839 2°54.55 337.3 13 328 8.5
2004-07-23 09:28:00 51°14.857 2°54.531 336.7 13 328 8.3
2004-07-23 09:28:04 51°14.87 2°54.519 336.1 13 328 8.3
2004-07-23 09:28:10 51°14.888 2°54.501 336 13 328 8.2
2004-07-23 09:28:14 51°14.9 2°54.488 336 13 328 8.2
2004-07-23 09:28:20 51°14.919 2°54.471 336.5 12.9 329 8.2
2004-07-23 09:28:24 51°14.931 2°54.46 337.7 12.9 330 8
2004-07-23 09:28:30 51°14.95 2°54.444 338.9 12.8 332 7.9
2004-07-23 09:28:34 51°14.963 2°54.434 340.2 12.8 333 7.7
2004-07-23 09:28:40 51°14.982 2°54.419 341.6 12.7 334 7.6
2004-07-23 09:28:46 51°15.001 2°54.405 342.7 12.6 335 7.5
2004-07-23 09:28:50 51°15.013 2°54.396 343.3 12.5 335 7.4
2004-07-23 09:28:54 51°15.026 2°54.387 343.7 12.5 336 7.5
2004-07-23 09:29:00 51°15.045 2°54.373 344 12.5 336 7.5
2004-07-23 09:29:06 51°15.064 2°54.359 344 12.6 336 7.4
2004-07-23 09:29:10 51°15.077 2°54.35 344 12.6 335 7.5
2004-07-23 09:29:14 51°15.089 2°54.341 344 12.6 335 7.6
2004-07-23 09:29:20 51°15.108 2°54.326 343.6 12.6 334 5.7
2004-07-23 09:29:22 51°15.114 2°54.321 343 12.7 333 7.6
2004-07-23 09:29:30 51°15.14 2°54.301 342.2 12.8 333 7.7
2004-07-23 09:29:34 51°15.152 2°54.29 341.7 12.8 332 7.7
2004-07-23 09:29:38 51°15.165 2°54.279 340.7 12.8 330 7.8
2004-07-23 09:29:42 51°15.177 2°54.267 338.6 12.9 328 7.9
2004-07-23 09:29:50 51°15.201 2°54.24 336.4 13 325 7.9
2004-07-23 09:29:54 51°15.212 2°54.227 334.3 13 324 7.9
2004-07-23 09:30:00 51°15.229 2°54.206 332.4 13.1 323 7.8
2004-07-23 09:30:02 51°15.235 2°54.199 331.6 13.1 322 8
2004-07-23 09:30:10 51°15.258 2°54.171 331 13.1 323 8.1
2004-07-23 09:30:14 51°15.27 2°54.157 331 13.1 323 8.1
2004-07-23 09:30:20 51°15.288 2°54.137 331.9 13.1 325 8.2
2004-07-23 09:30:24 51°15.3 2°54.125 334.2 13.1 328 8.2
2004-07-23 09:30:30 51°15.319 2°54.109 337.5 13 333 8.4
2004-07-23 09:30:34 51°15.333 2°54.099 340.3 13 335 8.3
2004-07-23 09:30:40 51°15.352 2°54.085 343.2 13 336 8.3
2004-07-23 09:30:44 51°15.365 2°54.077 345 12.9 337 8.5
2004-07-23 09:30:50 51°15.385 2°54.064 346.4 12.9 338 8.7
2004-07-23 09:30:54 51°15.399 2°54.055 347 12.9 339 8.8
2004-07-23 09:31:00 51°15.419 2°54.042 347.2 13 338 8.8
2004-07-23 09:31:04 51°15.432 2°54.033 347 13.1 337 8.8
2004-07-23 09:31:10 51°15.452 2°54.019 346.1 13.1 336 8.9
2004-07-23 09:31:14 51°15.465 2°54.009 345.2 13.1 335 9
2004-07-23 09:31:20 51°15.485 2°53.994 344.2 13.1 334 9
2004-07-23 09:31:24 51°15.498 2°53.983 343.1 13.1 333 9.1
2004-07-23 09:31:30 51°15.517 2°53.967 342.4 13.1 333 9.1
2004-07-23 09:31:34 51°15.53 2°53.957 341.8 13.1 332 9.2
2004-07-23 09:31:40 51°15.549 2°53.94 341.6 13.1 332 9.3
2004-07-23 09:31:44 51°15.562 2°53.93 341.5 13.2 332 9.3
2004-07-23 09:31:50 51°15.582 2°53.914 341.8 13.1 333 9.5
2004-07-23 09:31:54 51°15.595 2°53.903 342.2 13.2 333 9.4
2004-07-23 09:32:00 51°15.615 2°53.888 342.6 13.1 334 9.6
2004-07-23 09:32:06 51°15.634 2°53.874 343.3 13.1 334 9.6
2004-07-23 09:32:10 51°15.648 2°53.864 344 13.1 335 9.7
2004-07-23 09:32:14 51°15.661 2°53.854 344.3 13.1 335 9.8
2004-07-23 09:32:20 51°15.68 2°53.839 344.4 13.1 335 9.8
2004-07-23 09:32:24 51°15.694 2°53.83 344.4 13.1 335 9.9
2004-07-23 09:32:30 51°15.713 2°53.815 344.3 13.1 334 10
2004-07-23 09:32:34 51°15.726 2°53.805 343.9 13.1 334 10
2004-07-23 09:32:40 51°15.746 2°53.789 343 13.1 333 10.1
2004-07-23 09:32:44 51°15.759 2°53.778 342.5 13.1 333 10.2
2004-07-23 09:32:48 51°15.771 2°53.767 342.2 13.1 332 10.2
2004-07-23 09:32:54 51°15.791 2°53.751 342 13.1 332 10.2
2004-07-23 09:33:00 51°15.81 2°53.735 342.1 13.1 333 10.3
2004-07-23 09:33:04 51°15.823 2°53.724 342.5 13.1 333 10.3
2004-07-23 09:33:10 51°15.843 2°53.709 343 13.1 334 10.3
2004-07-23 09:33:14 51°15.856 2°53.699 343.3 13.1 334 10.4
2004-07-23 09:33:20 51°15.875 2°53.684 343.6 13.1 334 10.4
2004-07-23 09:33:24 51°15.888 2°53.673 343.6 13.1 334 10.4
2004-07-23 09:33:30 51°15.907 2°53.658 343.4 13.1 334 10.4
2004-07-23 09:33:34 51°15.921 2°53.648 343.3 13.1 334 10.5
2004-07-23 09:33:40 51°15.94 2°53.632 343.4 13.1 334 10.6
2004-07-23 09:33:44 51°15.953 2°53.622 343.5 13.1 334 10.5
2004-07-23 09:33:50 51°15.972 2°53.607 343.5 13 334 10.6
2004-07-23 09:33:54 51°15.985 2°53.597 343.6 13.1 334 10.6
2004-07-23 09:34:00 51°16.005 2°53.581 343.6 13.1 334 10.6
2004-07-23 09:34:04 51°16.018 2°53.571 343.4 13.1 334 10.7
2004-07-23 09:34:10 51°16.037 2°53.556 343.4 13 333 10.7
2004-07-23 09:34:14 51°16.05 2°53.545 343.2 13 333 10.7
2004-07-23 09:34:19 51°16.066 2°53.532 343.1 13 333 10.8
2004-07-23 09:34:24 51°16.082 2°53.518 342.5 13 332 10.9
2004-07-23 09:34:30 51°16.101 2°53.502 342.2 13 333 10.9
2004-07-23 09:34:35 51°16.117 2°53.489 342.1 13 332 10.9
2004-07-23 09:34:40 51°16.133 2°53.476 342.3 13 332 11
2004-07-23 09:34:44 51°16.146 2°53.465 342.5 13 333 11
2004-07-23 09:34:50 51°16.165 2°53.45 342.9 13 333 11.1
2004-07-23 09:34:54 51°16.178 2°53.439 343.3 13 333 11
2004-07-23 09:35:00 51°16.197 2°53.424 343.4 13 334 11.1
2004-07-23 09:35:02 51°16.204 2°53.419 343.6 13 333 11.2
2004-07-23 09:35:10 51°16.23 2°53.398 343.6 13 333 11.2
2004-07-23 09:35:14 51°16.243 2°53.388 343.8 13 333 11.3
2004-07-23 09:35:20 51°16.262 2°53.372 343.6 13 333 11.2
2004-07-23 09:35:24 51°16.275 2°53.361 343.2 13 332 11.2
2004-07-23 09:35:30 51°16.294 2°53.345 342.8 13 332 11.3
2004-07-23 09:35:35 51°16.31 2°53.331 342.7 13 332 11.2
2004-07-23 09:35:40 51°16.326 2°53.318 342.2 13 332 11.2
2004-07-23 09:35:46 51°16.344 2°53.3 341.4 13 331 11.2
2004-07-23 09:35:50 51°16.357 2°53.289 340.8 13 330 11.2
2004-07-23 09:35:54 51°16.369 2°53.277 340.4 13.1 329 11.3
2004-07-23 09:36:00 51°16.388 2°53.259 339.9 13.1 329 11.3
2004-07-23 09:36:04 51°16.401 2°53.247 339.6 13.1 329 11.3
2004-07-23 09:36:10 51°16.419 2°53.23 339.6 13.1 329 11.3
2004-07-23 09:36:14 51°16.432 2°53.218 339.6 13.1 330 11.4
2004-07-23 09:36:20 51°16.451 2°53.201 339.9 13.1 330 11.4
2004-07-23 09:36:24 51°16.464 2°53.189 340.5 13.1 331 11.3
2004-07-23 09:36:30 51°16.483 2°53.173 340.9 13.1 331 11.3
2004-07-23 09:36:35 51°16.498 2°53.159 341.1 13.1 331 11.2
2004-07-23 09:36:40 51°16.514 2°53.144 341 13.1 331 11.1
2004-07-23 09:36:44 51°16.527 2°53.133 340.5 13.1 330 11.1
2004-07-23 09:36:50 51°16.545 2°53.115 340.1 13.1 329 11.1
2004-07-23 09:36:54 51°16.558 2°53.103 339.6 13.1 330 10.9
2004-07-23 09:37:00 51°16.577 2°53.085 339.6 13.1 329 10.8
2004-07-23 09:37:03 51°16.586 2°53.077 339.6 13.1 330 10.8
2004-07-23 09:37:10 51°16.608 2°53.056 339.6 13 330 10.6
2004-07-23 09:37:14 51°16.62 2°53.045 339.8 13 331 10.6
2004-07-23 09:37:20 51°16.639 2°53.028 340.4 13 331 10.5
2004-07-23 09:37:24 51°16.652 2°53.017 340.9 13 331 10.6
2004-07-23 09:37:30 51°16.671 2°53.001 341.1 13 332 10.4
2004-07-23 09:37:35 51°16.687 2°52.987 341.1 13 332 10.3
2004-07-23 09:37:40 51°16.703 2°52.973 341.1 13 332 10.3
2004-07-23 09:37:44 51°16.715 2°52.962 340.8 13 331 10.1
2004-07-23 09:37:50 51°16.734 2°52.945 340.3 13 331 10
2004-07-23 09:37:54 51°16.747 2°52.934 339.8 13 331 9.6
2004-07-23 09:38:00 51°16.766 2°52.918 339.7 12.9 331 9.5
2004-07-23 09:38:04 51°16.778 2°52.907 339.7 12.9 331 9.2
2004-07-23 09:38:10 51°16.797 2°52.891 340.3 12.8 332 8.7
2004-07-23 09:38:14 51°16.81 2°52.881 340.6 12.8 333 8.4
2004-07-23 09:38:18 51°16.822 2°52.871 341 12.7 333 8.2
2004-07-23 09:38:24 51°16.841 2°52.855 341.2 12.6 333 8.2
2004-07-23 09:38:30 51°16.859 2°52.84 341.2 12.5 333 8.2
2004-07-23 09:38:35 51°16.875 2°52.828 341.2 12.6 333 8.2
2004-07-23 09:38:40 51°16.89 2°52.815 341.5 12.6 333 8.1
2004-07-23 09:38:46 51°16.909 2°52.8 341.5 12.7 333 8.1
2004-07-23 09:38:50 51°16.922 2°52.79 341.6 12.7 334 8.3
2004-07-23 09:38:54 51°16.935 2°52.78 341.9 12.7 334 8.4
2004-07-23 09:39:00 51°16.954 2°52.765 342.1 12.8 334 8.5
2004-07-23 09:39:04 51°16.967 2°52.755 342.3 12.8 334 8.5
2004-07-23 09:39:11 51°16.989 2°52.738 342.5 12.9 334 8.6
2004-07-23 09:39:15 51°17.002 2°52.728 342.5 12.9 333 8.8
2004-07-23 09:39:20 51°17.018 2°52.714 341.9 13 333 8.9
2004-07-23 09:39:24 51°17.031 2°52.703 341 13 332 9.1
2004-07-23 09:39:30 51°17.05 2°52.686 339.9 13.1 330 9.1
2004-07-23 09:39:35 51°17.065 2°52.671 338.9 13.1 330 9
2004-07-23 09:39:40 51°17.081 2°52.656 338.2 13.2 329 8.7
2004-07-23 09:39:46 51°17.1 2°52.639 337.9 13.1 329 8.6
2004-07-23 09:39:50 51°17.112 2°52.627 337.8 12.9 330 8.7
2004-07-23 09:39:55 51°17.128 2°52.613 338.3 12.9 331 8.4
2004-07-23 09:40:00 51°17.144 2°52.6 339.5 12.8 332 8.6
2004-07-23 09:40:04 51°17.156 2°52.59 340.7 12.8 333 8.6
2004-07-23 09:40:10 51°17.175 2°52.575 341.8 12.9 334 8.6
2004-07-23 09:40:14 51°17.188 2°52.565 342.3 12.9 334 8.7
2004-07-23 09:40:20 51°17.208 2°52.55 342.5 12.9 334 8.9
2004-07-23 09:40:26 51°17.227 2°52.534 342.5 12.9 333 8.8
2004-07-23 09:40:30 51°17.239 2°52.523 341.9 13 332 9
2004-07-23 09:40:35 51°17.255 2°52.509 340.9 13 331 9
2004-07-23 09:40:40 51°17.271 2°52.494 339.6 13 330 9.1
2004-07-23 09:40:46 51°17.289 2°52.476 338.9 13 329 9.1
2004-07-23 09:40:50 51°17.301 2°52.464 338.1 13 327 9.1
2004-07-23 09:40:54 51°17.313 2°52.449 335.7 13 322 9.2
2004-07-23 09:41:00 51°17.328 2°52.425 331 13.1 318 9.2
2004-07-23 09:41:04 51°17.338 2°52.408 325.8 13.2 311 9.3
2004-07-23 09:41:10 51°17.351 2°52.38 320.9 13.2 307 9.3
2004-07-23 09:41:14 51°17.359 2°52.36 316 13.2 304 9.3
2004-07-23 09:41:20 51°17.371 2°52.331 313 13.2 303 9.3
2004-07-23 09:41:24 51°17.379 2°52.31 310.8 13.3 301 9.3
2004-07-23 09:41:30 51°17.39 2°52.28 309.6 13.4 300 9.3
2004-07-23 09:41:34 51°17.397 2°52.259 308.7 13.4 300 9.4
2004-07-23 09:41:40 51°17.408 2°52.228 308.4 13.5 300 9.5
2004-07-23 09:41:44 51°17.415 2°52.207 308 13.5 299 9.5
2004-07-23 09:41:50 51°17.426 2°52.176 307.7 13.5 300 9.5
2004-07-23 09:41:55 51°17.436 2°52.15 308 13.5 300 9.5
2004-07-23 09:42:00 51°17.445 2°52.125 308.6 13.5 300 9.4
2004-07-23 09:42:04 51°17.453 2°52.104 309.1 13.5 300 9.5
2004-07-23 09:42:10 51°17.464 2°52.073 309.3 13.4 299 9.4
2004-07-23 09:42:14 51°17.471 2°52.052 308.4 13.5 297 9.5
2004-07-23 09:42:20 51°17.48 2°52.019 305.5 13.5 296 9.6
2004-07-23 09:42:24 51°17.486 2°51.997 303.7 13.5 294 9.6
2004-07-23 09:42:30 51°17.494 2°51.964 301.9 13.6 291 9.5
2004-07-23 09:42:35 51°17.501 2°51.936 299.7 13.6 290 9.5
2004-07-23 09:42:40 51°17.507 2°51.907 298.7 13.6 290 9.5
2004-07-23 09:42:46 51°17.515 2°51.873 298.3 13.6 290 9.4
2004-07-23 09:42:50 51°17.52 2°51.85 297.9 13.6 289 9.5
2004-07-23 09:42:55 51°17.526 2°51.822 297.5 13.6 289 9.3
2004-07-23 09:43:00 51°17.532 2°51.794 297.5 13.6 290 9.4
2004-07-23 09:43:04 51°17.538 2°51.771 298.1 13.6 291 9.2
2004-07-23 09:43:10 51°17.546 2°51.738 298.9 13.5 291 9.2
2004-07-23 09:43:15 51°17.553 2°51.71 299.4 13.5 292 9.1
2004-07-23 09:43:20 51°17.56 2°51.683 300.3 13.5 293 9.1
2004-07-23 09:43:24 51°17.566 2°51.66 300.8 13.5 293 9.1
2004-07-23 09:43:30 51°17.575 2°51.627 301 13.5 292 9
2004-07-23 09:43:35 51°17.582 2°51.6 300.9 13.5 292 8.9
2004-07-23 09:43:40 51°17.588 2°51.572 300.6 13.5 291 8.7
2004-07-23 09:43:44 51°17.594 2°51.549 299.9 13.5 291 8.8
2004-07-23 09:43:51 51°17.603 2°51.51 299.3 13.5 290 8.7
2004-07-23 09:43:55 51°17.608 2°51.488 298.7 13.5 290 8.7
2004-07-23 09:44:00 51°17.614 2°51.46 298.5 13.5 291 8.7
2004-07-23 09:44:05 51°17.622 2°51.432 298.9 13.5 291 8.8
2004-07-23 09:44:10 51°17.629 2°51.404 299.6 13.5 292 8.8
2004-07-23 09:44:14 51°17.634 2°51.382 300 13.5 292 8.7
2004-07-23 09:44:20 51°17.644 2°51.347 300.4 13.5 293 8.7
2004-07-23 09:44:25 51°17.651 2°51.319 301.2 13.5 293 8.7
2004-07-23 09:44:30 51°17.66 2°51.29 301.7 13.5 294 8.7
2004-07-23 09:44:35 51°17.669 2°51.261 302 13.5 293 8.7
2004-07-23 09:44:40 51°17.677 2°51.233 302.1 13.6 293 8.7
2004-07-23 09:44:46 51°17.685 2°51.199 301.4 13.6 292 8.7
2004-07-23 09:44:50 51°17.69 2°51.176 300.4 13.7 290 8.9
2004-07-23 09:44:54 51°17.695 2°51.153 299 13.7 290 9
2004-07-23 09:45:00 51°17.704 2°51.116 297.9 13.7 289 9.1
2004-07-23 09:45:04 51°17.709 2°51.093 296.9 13.7 288 9.1
2004-07-23 09:45:10 51°17.716 2°51.058 295.9 13.8 287 9.1
2004-07-23 09:45:15 51°17.722 2°51.029 295.5 13.8 287 9.4
2004-07-23 09:45:20 51°17.728 2°51 295.4 13.9 288 9.5
2004-07-23 09:45:24 51°17.732 2°50.977 295.6 13.9 288 9.5
2004-07-23 09:45:30 51°17.739 2°50.942 296.3 13.9 289 9.8
2004-07-23 09:45:34 51°17.744 2°50.92 297.1 13.9 290 9.9
2004-07-23 09:45:40 51°17.752 2°50.885 298.1 13.9 290 9.8
2004-07-23 09:45:44 51°17.757 2°50.863 298.6 13.9 291 10.2
2004-07-23 09:45:50 51°17.765 2°50.829 298.9 13.9 291 10.5
2004-07-23 09:45:55 51°17.771 2°50.801 299.1 13.9 291 10.4
2004-07-23 09:46:00 51°17.778 2°50.772 299.3 13.9 291 10.5
2004-07-23 09:46:06 51°17.786 2°50.738 299.2 13.9 291 10.7
2004-07-23 09:46:11 51°17.793 2°50.709 299 13.9 290 10.9
2004-07-23 09:46:15 51°17.798 2°50.686 298.5 13.9 290 11.1
2004-07-23 09:46:20 51°17.804 2°50.657 298 13.9 289 11
2004-07-23 09:46:24 51°17.809 2°50.633 297.5 13.9 289 11.1
2004-07-23 09:46:30 51°17.817 2°50.598 297.5 13.9 289 11.1
2004-07-23 09:46:35 51°17.823 2°50.569 297.3 13.9 289 11.1
2004-07-23 09:46:40 51°17.829 2°50.54 297.2 13.9 289 11.5
2004-07-23 09:46:44 51°17.834 2°50.517 296.9 13.9 288 11.4
2004-07-23 09:46:50 51°17.842 2°50.481 296.9 13.9 289 11.6
2004-07-23 09:46:55 51°17.848 2°50.453 296.9 13.9 288 11.4
2004-07-23 09:47:00 51°17.854 2°50.424 297 13.8 289 11.5
2004-07-23 09:47:04 51°17.859 2°50.401 297.1 13.9 288 11.8
2004-07-23 09:47:10 51°17.866 2°50.366 297.3 13.8 289 11.9
2004-07-23 09:47:15 51°17.872 2°50.338 297.3 13.8 289 11.8
2004-07-23 09:47:20 51°17.878 2°50.309 297.5 13.8 289 11.8
2004-07-23 09:47:24 51°17.883 2°50.286 297.5 13.9 289 12
2004-07-23 09:47:30 51°17.891 2°50.251 297.7 13.8 289 12.1
2004-07-23 09:47:34 51°17.896 2°50.228 297.8 13.8 289 12
2004-07-23 09:47:40 51°17.903 2°50.193 297.8 13.8 289 12.2
2004-07-23 09:47:46 51°17.911 2°50.159 297.7 13.8 289 12.3
2004-07-23 09:47:50 51°17.916 2°50.136 297.6 13.8 288 12.3
2004-07-23 09:47:55 51°17.922 2°50.107 297.3 13.8 289 12.3
2004-07-23 09:48:00 51°17.928 2°50.078 297.2 13.8 289 12.3
2004-07-23 09:48:05 51°17.934 2°50.049 297.5 13.8 289 12.4
2004-07-23 09:48:10 51°17.941 2°50.02 297.9 13.8 289 12.4
2004-07-23 09:48:15 51°17.947 2°49.991 297.9 13.8 289 12.5
2004-07-23 09:48:20 51°17.953 2°49.962 298 13.8 289 12.6
2004-07-23 09:48:24 51°17.958 2°49.939 298.1 13.8 289 12.6
2004-07-23 09:48:28 51°17.963 2°49.916 298 13.9 289 12.7
2004-07-23 09:48:35 51°17.971 2°49.876 297.9 13.8 289 12.7
2004-07-23 09:48:40 51°17.977 2°49.847 297.6 13.9 289 12.8
2004-07-23 09:48:44 51°17.982 2°49.824 297.6 13.9 289 12.7
2004-07-23 09:48:50 51°17.99 2°49.789 297.5 13.8 289 12.8
2004-07-23 09:48:54 51°17.995 2°49.766 297.5 13.8 289 12.7
2004-07-23 09:49:00 51°18.002 2°49.731 297.4 13.8 289 12.7
2004-07-23 09:49:06 51°18.01 2°49.697 297.5 13.8 289 12.8
2004-07-23 09:49:10 51°18.015 2°49.674 297.9 13.8 290 12.7
2004-07-23 09:49:15 51°18.021 2°49.645 298.2 13.8 289 12.7
2004-07-23 09:49:20 51°18.027 2°49.616 298.3 13.8 290 12.7
2004-07-23 09:49:25 51°18.033 2°49.588 298.3 13.8 289 12.5
2004-07-23 09:49:30 51°18.04 2°49.559 298.2 13.8 289 12.5
2004-07-23 09:49:35 51°18.046 2°49.53 297.8 13.8 289 12.4
2004-07-23 09:49:40 51°18.052 2°49.501 297.3 13.8 288 12.3
2004-07-23 09:49:46 51°18.059 2°49.466 297.2 13.8 289 12.3
2004-07-23 09:49:50 51°18.064 2°49.443 297.3 13.8 289 12.5
2004-07-23 09:49:55 51°18.07 2°49.414 297.5 13.8 289 11.8
2004-07-23 09:50:00 51°18.077 2°49.385 297.6 13.8 289 11.6
2004-07-23 09:50:04 51°18.082 2°49.362 298 13.8 289 11.1
2004-07-23 09:50:11 51°18.091 2°49.322 298.3 13.7 290 10.9
2004-07-23 09:50:15 51°18.097 2°49.299 298.6 13.7 290 11
2004-07-23 09:50:20 51°18.103 2°49.27 298.8 13.8 290 11.2
2004-07-23 09:50:25 51°18.11 2°49.241 298.8 13.8 290 11.1
2004-07-23 09:50:30 51°18.117 2°49.212 298.9 13.8 290 11
2004-07-23 09:50:35 51°18.124 2°49.184 299 13.8 290 10.8
2004-07-23 09:50:40 51°18.131 2°49.155 299 13.8 290 10.8
2004-07-23 09:50:46 51°18.139 2°49.121 299 13.8 290 10.7
2004-07-23 09:50:50 51°18.144 2°49.097 299 13.8 290 10.1
2004-07-23 09:50:55 51°18.151 2°49.068 298.9 13.7 290 10
2004-07-23 09:51:00 51°18.158 2°49.04 298.7 13.7 290 9.8
2004-07-23 09:51:04 51°18.163 2°49.017 298.3 13.7 290 9.4
2004-07-23 09:51:08 51°18.168 2°48.994 298.3 13.7 290 9
2004-07-23 09:51:15 51°18.177 2°48.955 298.3 13.6 290 8.7
2004-07-23 09:51:20 51°18.183 2°48.927 298.7 13.6 290 9.5
2004-07-23 09:51:25 51°18.19 2°48.899 299 13.6 291 9.3
2004-07-23 09:51:30 51°18.197 2°48.87 299.6 13.8 292 9.6
2004-07-23 09:51:35 51°18.204 2°48.842 300.1 13.9 292 9.3
2004-07-23 09:51:40 51°18.211 2°48.813 300.1 13.9 292 9.5
2004-07-23 09:51:44 51°18.217 2°48.79 300.1 13.9 291 9.6
2004-07-23 09:51:51 51°18.227 2°48.75 299.7 13.9 291 9.3
2004-07-23 09:51:55 51°18.232 2°48.727 299.4 13.9 291 9.2
2004-07-23 09:52:00 51°18.239 2°48.698 299.1 13.9 291 8.9
2004-07-23 09:52:04 51°18.244 2°48.675 298.8 13.9 290 9
2004-07-23 09:52:10 51°18.252 2°48.64 298 13.8 289 9.2
2004-07-23 09:52:15 51°18.258 2°48.611 297.6 13.9 289 9.5
2004-07-23 09:52:20 51°18.265 2°48.582 297.3 14 289 9.5
2004-07-23 09:52:23 51°18.268 2°48.564 297.1 14 289 9.7
2004-07-23 09:52:30 51°18.277 2°48.523 296.7 14 289 9.6
2004-07-23 09:52:35 51°18.284 2°48.493 296.8 14 289 9.4
2004-07-23 09:52:40 51°18.291 2°48.463 297.1 14 289 9.1
2004-07-23 09:52:44 51°18.297 2°48.44 297.7 13.9 290 8.6
2004-07-23 09:52:50 51°18.305 2°48.406 298.1 13.8 291 9.1
2004-07-23 09:52:55 51°18.312 2°48.378 298.7 13.8 291 9.6
2004-07-23 09:53:00 51°18.318 2°48.349 299 13.8 291 9.5
2004-07-23 09:53:06 51°18.327 2°48.315 299.3 13.9 292 9.6
2004-07-23 09:53:10 51°18.333 2°48.292 299.7 14 292 9.6
2004-07-23 09:53:15 51°18.34 2°48.263 299.8 14 292 9.7
2004-07-23 09:53:19 51°18.345 2°48.24 299.5 14 291 9.9
2004-07-23 09:53:24 51°18.352 2°48.211 299.3 14 291 10.2
2004-07-23 09:53:30 51°18.36 2°48.175 298.2 14.1 288 10.5
2004-07-23 09:53:35 51°18.366 2°48.145 296.6 14.1 288 10.8
2004-07-23 09:53:40 51°18.372 2°48.114 295.1 14.2 286 11.1
2004-07-23 09:53:44 51°18.376 2°48.09 293.9 14.2 286 11.4
2004-07-23 09:53:50 51°18.382 2°48.054 293.2 14.2 285 11.6
2004-07-23 09:53:54 51°18.385 2°48.03 292.4 14.2 285 11.7
2004-07-23 09:54:00 51°18.391 2°47.994 291.9 14.2 284 11.9
2004-07-23 09:54:06 51°18.397 2°47.957 291.7 14.2 284 12.1
2004-07-23 09:54:11 51°18.402 2°47.927 291.7 14.1 284 12.2
2004-07-23 09:54:14 51°18.405 2°47.908 291.7 14.1 284 12.3
2004-07-23 09:54:19 51°18.409 2°47.878 291.7 14.1 284 12.5
2004-07-23 09:54:25 51°18.415 2°47.842 291.8 14.1 284 12.6
2004-07-23 09:54:30 51°18.42 2°47.812 292.1 14.1 285 12.7
2004-07-23 09:54:35 51°18.424 2°47.782 292.3 14.1 285 12.7
2004-07-23 09:54:40 51°18.429 2°47.753 292.5 14.1 285 12.8
2004-07-23 09:54:46 51°18.435 2°47.717 292.5 14 285 12.8
2004-07-23 09:54:50 51°18.439 2°47.693 292.7 14 285 12.7
2004-07-23 09:54:54 51°18.443 2°47.669 292.9 14 285 12.7
2004-07-23 09:55:00 51°18.449 2°47.634 292.7 14 285 12.9
2004-07-23 09:55:04 51°18.452 2°47.61 292.9 14 285 13.3
2004-07-23 09:55:10 51°18.458 2°47.574 292.8 14 285 13.9
2004-07-23 09:55:15 51°18.463 2°47.544 292.9 14.1 285 14.2
2004-07-23 09:55:20 51°18.468 2°47.514 292.9 14 285 14.6
2004-07-23 09:55:24 51°18.472 2°47.49 292.9 14.1 285 14.9
2004-07-23 09:55:30 51°18.477 2°47.454 292.6 14.1 284 15.3
2004-07-23 09:55:34 51°18.48 2°47.429 292.4 14.1 284 15.5
2004-07-23 09:55:40 51°18.486 2°47.393 292 14.1 284 15.6
2004-07-23 09:55:44 51°18.49 2°47.369 291.9 14 284 15.8
2004-07-23 09:55:50 51°18.496 2°47.332 292.1 14 284 16.1
2004-07-23 09:55:55 51°18.501 2°47.302 292.4 14 284 16.2
2004-07-23 09:56:00 51°18.506 2°47.272 292.7 14 284 16.3
2004-07-23 09:56:04 51°18.509 2°47.248 292.7 14 284 16.5
2004-07-23 09:56:10 51°18.515 2°47.213 292.6 14 284 16.6
2004-07-23 09:56:15 51°18.519 2°47.183 292.8 14 284 16.6
2004-07-23 09:56:20 51°18.524 2°47.153 293 14 284 16.6
2004-07-23 09:56:24 51°18.527 2°47.129 293 14 283 16.8
2004-07-23 09:56:31 51°18.533 2°47.087 292.5 14 281 16.9
2004-07-23 09:56:35 51°18.536 2°47.062 291.5 14 281 17
2004-07-23 09:56:40 51°18.539 2°47.032 291 14 281 17.1
2004-07-23 09:56:44 51°18.542 2°47.007 291.4 14 281 17.1
2004-07-23 09:56:50 51°18.548 2°46.971 291.9 14 282 17.2
2004-07-23 09:56:54 51°18.551 2°46.947 292.7 14 283 17.3
2004-07-23 09:57:00 51°18.556 2°46.911 293.1 14 283 17.5
2004-07-23 09:57:04 51°18.56 2°46.886 293.4 14 283 17.7
2004-07-23 09:57:10 51°18.565 2°46.85 293.6 14 283 17.8
2004-07-23 09:57:14 51°18.569 2°46.826 293.8 14 284 17.8
2004-07-23 09:57:18 51°18.573 2°46.802 293.9 14 283 17.9
2004-07-23 09:57:26 51°18.581 2°46.754 294.4 14 284 17.9
2004-07-23 09:57:30 51°18.585 2°46.73 295 14 285 17.6
2004-07-23 09:57:34 51°18.589 2°46.707 295.7 13.9 286 16.9
2004-07-23 09:57:40 51°18.596 2°46.671 296.4 14 286 16.8
2004-07-23 09:57:44 51°18.6 2°46.647 296.8 14 286 17.3
2004-07-23 09:57:50 51°18.607 2°46.611 297 14 287 17.9
2004-07-23 09:57:55 51°18.613 2°46.582 297 14 287 18.3
2004-07-23 09:58:00 51°18.618 2°46.552 297.1 14 287 18.4
2004-07-23 09:58:04 51°18.623 2°46.528 296.9 14 287 18.5
2004-07-23 09:58:10 51°18.63 2°46.493 296.6 14 287 18.5
2004-07-23 09:58:14 51°18.634 2°46.469 296.6 14 287 18.8
2004-07-23 09:58:20 51°18.641 2°46.434 296.6 14 287 18.7
2004-07-23 09:58:26 51°18.648 2°46.398 296.8 14 287 18.9
2004-07-23 09:58:30 51°18.653 2°46.374 296.8 14.1 287 19.1
2004-07-23 09:58:34 51°18.657 2°46.35 296.3 14.1 286 19.2
2004-07-23 09:58:40 51°18.664 2°46.314 295.8 14.1 286 19.4
2004-07-23 09:58:44 51°18.668 2°46.289 295.7 14.1 286 19.3
2004-07-23 09:58:51 51°18.675 2°46.247 295.4 14.1 286 19.5
2004-07-23 09:58:55 51°18.68 2°46.223 295.4 14.1 286 19.6
2004-07-23 09:59:00 51°18.685 2°46.193 295.5 14.2 286 19.8
2004-07-23 09:59:04 51°18.69 2°46.169 296.1 14.1 287 19.8
2004-07-23 09:59:10 51°18.697 2°46.133 296.2 14.1 287 20.2
2004-07-23 09:59:14 51°18.701 2°46.109 296.7 14.1 287 19.9
2004-07-23 09:59:20 51°18.708 2°46.073 296.7 14.1 287 19.9
2004-07-23 09:59:24 51°18.713 2°46.049 296.8 14.1 287 20
2004-07-23 09:59:30 51°18.719 2°46.014 296.8 14.1 287 20
2004-07-23 09:59:35 51°18.725 2°45.984 296.8 14.1 287 20
2004-07-23 09:59:40 51°18.731 2°45.954 296.5 14.1 286 19.9
2004-07-23 09:59:44 51°18.735 2°45.93 296.1 14.1 286 19.7
2004-07-23 09:59:50 51°18.741 2°45.893 295.7 14.2 285 19.6
2004-07-23 09:59:55 51°18.747 2°45.863 295.5 14.2 286 19.5
2004-07-23 10:00:00 51°18.752 2°45.833 295.4 14.2 285 19.5
2004-07-23 10:00:04 51°18.756 2°45.809 295.4 14.2 286 19.6
2004-07-23 10:00:10 51°18.763 2°45.773 295.4 14.1 286 19.5
2004-07-23 10:00:14 51°18.767 2°45.749 296.1 14.1 286 19.2
2004-07-23 10:00:20 51°18.774 2°45.712 296.1 14.2 286 19.1
2004-07-23 10:00:24 51°18.779 2°45.688 296.1 14.2 287 19.2
2004-07-23 10:00:30 51°18.785 2°45.652 296.1 14.2 286 18.8
2004-07-23 10:00:35 51°18.791 2°45.622 296.1 14.2 286 18.6
2004-07-23 10:00:40 51°18.796 2°45.591 295.6 14.2 286 18.6
2004-07-23 10:00:43 51°18.799 2°45.573 295.6 14.2 286 18.3
2004-07-23 10:00:50 51°18.807 2°45.531 295.6 14.2 286 17.9
2004-07-23 10:00:54 51°18.811 2°45.507 295.7 14.2 287 17.9
2004-07-23 10:01:00 51°18.818 2°45.471 296.1 14.2 287 17.6
2004-07-23 10:01:05 51°18.824 2°45.441 296.3 14.2 287 16.9
2004-07-23 10:01:11 51°18.831 2°45.404 296.6 14.2 287 16.3
2004-07-23 10:01:15 51°18.836 2°45.381 296.7 14.2 287 16.2
2004-07-23 10:01:20 51°18.841 2°45.351 296.9 14.2 287 15.2
2004-07-23 10:01:24 51°18.846 2°45.327 297 14.2 288 14.6
2004-07-23 10:01:30 51°18.853 2°45.291 297.1 14.2 288 15.9
2004-07-23 10:01:35 51°18.86 2°45.261 297.3 14.2 288 15.6
2004-07-23 10:01:40 51°18.866 2°45.231 297.6 14.2 288 14.5
2004-07-23 10:01:46 51°18.873 2°45.195 297.8 14.2 288 14
2004-07-23 10:01:50 51°18.878 2°45.171 297.6 14.2 288 13.5
2004-07-23 10:01:55 51°18.884 2°45.141 297.5 14.2 288 14.4
2004-07-23 10:02:00 51°18.89 2°45.111 296.8 14.2 288 13.6
2004-07-23 10:02:05 51°18.896 2°45.081 296.8 14.3 288 12.9
2004-07-23 10:02:09 51°18.901 2°45.057 296.8 14.2 288 12.1
2004-07-23 10:02:15 51°18.908 2°45.021 296.8 14.2 288 9.8
2004-07-23 10:02:20 51°18.914 2°44.991 296.8 14.2 288 12.6
2004-07-23 10:02:25 51°18.92 2°44.961 296.8 14.2 288 12.5
2004-07-23 10:02:31 51°18.928 2°44.925 297 14.3 289 11.6
2004-07-23 10:02:34 51°18.932 2°44.907 297.3 14.3 289 11.3
2004-07-23 10:02:40 51°18.939 2°44.871 297.1 14.3 288 9.6
2004-07-23 10:02:45 51°18.945 2°44.841 297 14.2 288 9.7
2004-07-23 10:02:50 51°18.951 2°44.811 296.5 14.1 288 11.3
2004-07-23 10:02:55 51°18.957 2°44.781 296.3 14.2 288 10.7
2004-07-23 10:03:00 51°18.963 2°44.751 296.3 14.3 288 8.7
2004-07-23 10:03:04 51°18.968 2°44.727 296.4 14.3 288 10.7
2004-07-23 10:03:10 51°18.975 2°44.691 296.2 14.3 288 8.6
2004-07-23 10:03:15 51°18.982 2°44.661 296.2 14.3 288 11.5
2004-07-23 10:03:20 51°18.988 2°44.631 296.2 14.4 289 10.7
2004-07-23 10:03:24 51°18.993 2°44.607 296.3 14.5 288 11.9
2004-07-23 10:03:30 51°19.001 2°44.57 296.4 14.6 289 13.5
2004-07-23 10:03:34 51°19.006 2°44.545 296.5 14.6 289 13.6
2004-07-23 10:03:40 51°19.014 2°44.509 296.8 14.6 289 14.4
2004-07-23 10:03:44 51°19.019 2°44.484 296.7 14.6 288 16.1
2004-07-23 10:03:50 51°19.026 2°44.447 296.5 14.5 288 17.4
2004-07-23 10:03:55 51°19.032 2°44.417 296.4 14.5 288 18.4
2004-07-23 10:04:00 51°19.038 2°44.386 295.9 14.5 287 19.3
2004-07-23 10:04:04 51°19.043 2°44.362 295.4 14.4 287 19.9
2004-07-23 10:04:10 51°19.05 2°44.325 295.3 14.3 288 20.2
2004-07-23 10:04:15 51°19.056 2°44.295 295.6 14.2 288 20.3
2004-07-23 10:04:20 51°19.062 2°44.266 295.7 14.2 288 20.5
2004-07-23 10:04:24 51°19.067 2°44.242 295.9 14.1 288 20.7
2004-07-23 10:04:30 51°19.074 2°44.206 296.1 14.1 288 20.8
2004-07-23 10:04:35 51°19.08 2°44.177 296.1 14.1 288 20.6
2004-07-23 10:04:40 51°19.086 2°44.147 295.9 14.1 288 20.7
2004-07-23 10:04:46 51°19.093 2°44.112 296.1 14.1 288 20.9
2004-07-23 10:04:50 51°19.098 2°44.088 296.1 14.1 288 21.1
2004-07-23 10:04:55 51°19.104 2°44.058 296.1 14 288 21.1
2004-07-23 10:05:00 51°19.11 2°44.029 296.4 14 288 21.1
2004-07-23 10:05:05 51°19.116 2°44 296.5 14 288 21.3
2004-07-23 10:05:11 51°19.124 2°43.964 296.5 14 288 21.4
2004-07-23 10:05:15 51°19.128 2°43.941 296.7 14 288 21.5
2004-07-23 10:05:19 51°19.133 2°43.917 296.7 14 288 21.5
2004-07-23 10:05:24 51°19.139 2°43.887 296.4 14 287 21.6
2004-07-23 10:05:30 51°19.146 2°43.852 296.1 14 287 21.6
2004-07-23 10:05:35 51°19.151 2°43.822 295.5 14 287 21.7
2004-07-23 10:05:40 51°19.157 2°43.792 295.2 14 287 21.8
2004-07-23 10:05:46 51°19.164 2°43.756 295.2 14.1 287 22
2004-07-23 10:05:50 51°19.169 2°43.732 295.3 14.1 287 22.1
2004-07-23 10:05:55 51°19.175 2°43.703 295.7 14 287 22.2
2004-07-23 10:06:00 51°19.18 2°43.673 296.1 14 287 22.3
2004-07-23 10:06:04 51°19.185 2°43.649 295.9 14 287 22.4
2004-07-23 10:06:10 51°19.192 2°43.614 295.9 14 287 22.7
2004-07-23 10:06:15 51°19.197 2°43.584 295.7 14 287 22.8
2004-07-23 10:06:20 51°19.203 2°43.554 295.6 14 287 22.9
2004-07-23 10:06:24 51°19.207 2°43.531 295.6 14 287 22.9
2004-07-23 10:06:30 51°19.214 2°43.495 295.6 14 287 23.1
2004-07-23 10:06:35 51°19.22 2°43.466 295.6 14 287 23.2
2004-07-23 10:06:40 51°19.226 2°43.436 296.1 14 288 23.2
2004-07-23 10:06:45 51°19.232 2°43.406 296.2 14 288 23.3
2004-07-23 10:06:50 51°19.238 2°43.377 296.3 14 288 23.1
2004-07-23 10:06:55 51°19.244 2°43.347 296.1 14 287 23.2
2004-07-23 10:07:00 51°19.249 2°43.317 295.9 14 287 23.1
2004-07-23 10:07:05 51°19.255 2°43.288 295.8 14 287 23.2
2004-07-23 10:07:11 51°19.262 2°43.252 295.8 14 287 23.2
2004-07-23 10:07:15 51°19.266 2°43.228 295.7 14 287 23.2
2004-07-23 10:07:20 51°19.272 2°43.199 295.6 14 286 23.3
2004-07-23 10:07:25 51°19.277 2°43.169 295.5 14 287 23.2
2004-07-23 10:07:31 51°19.284 2°43.133 295.6 14 287 23.2
2004-07-23 10:07:35 51°19.288 2°43.11 295.8 14 287 23.1
2004-07-23 10:07:40 51°19.294 2°43.08 296.1 14 287 22.9
2004-07-23 10:07:44 51°19.299 2°43.056 296.3 14 287 23
2004-07-23 10:07:50 51°19.306 2°43.021 296.6 14 288 22.9
2004-07-23 10:07:55 51°19.312 2°42.991 296.8 14 287 22.9
2004-07-23 10:08:00 51°19.318 2°42.961 296.7 14 287 22.8
2004-07-23 10:08:06 51°19.324 2°42.926 296.6 14.1 287 22.9
2004-07-23 10:08:10 51°19.329 2°42.902 296.1 14.1 287 23
2004-07-23 10:08:15 51°19.335 2°42.872 295.9 14.1 287 23
2004-07-23 10:08:20 51°19.341 2°42.842 296.1 14 287 23.1
2004-07-23 10:08:24 51°19.345 2°42.819 296.2 14.1 287 23
2004-07-23 10:08:29 51°19.351 2°42.789 296.2 14.1 286 23
2004-07-23 10:08:35 51°19.357 2°42.753 295.6 14.1 286 22.9
2004-07-23 10:08:40 51°19.363 2°42.723 295 14.1 286 23
2004-07-23 10:08:44 51°19.367 2°42.698 294.9 14.1 286 22.9
2004-07-23 10:08:51 51°19.375 2°42.657 295 14.1 286 23
2004-07-23 10:08:54 51°19.378 2°42.639 295.4 14.1 287 22.9
2004-07-23 10:09:00 51°19.385 2°42.603 296.1 14.1 287 23.2
2004-07-23 10:09:05 51°19.391 2°42.573 296.3 14.1 287 23.2
2004-07-23 10:09:10 51°19.396 2°42.543 296.5 14 287 23.2
2004-07-23 10:09:14 51°19.401 2°42.52 296.7 14 287 23.1
2004-07-23 10:09:20 51°19.408 2°42.484 296.6 14 287 23.3
2004-07-23 10:09:24 51°19.413 2°42.461 296.8 14 287 23.3
2004-07-23 10:09:30 51°19.42 2°42.425 296.6 14 288 23.3
2004-07-23 10:09:34 51°19.424 2°42.401 296.8 14 287 23.2
2004-07-23 10:09:40 51°19.431 2°42.366 296.4 14 287 23.1
2004-07-23 10:09:46 51°19.438 2°42.33 296.4 14 287 23.2
2004-07-23 10:09:50 51°19.442 2°42.306 296.1 14 287 23.1
2004-07-23 10:09:55 51°19.448 2°42.276 295.9 14.1 286 23.2
2004-07-23 10:10:00 51°19.454 2°42.246 295.7 14.1 287 23
2004-07-23 10:10:06 51°19.46 2°42.21 296.2 14.1 287 23
2004-07-23 10:10:10 51°19.465 2°42.187 296.1 14 288 22.9
2004-07-23 10:10:15 51°19.471 2°42.157 296.8 14.1 286 22.8
2004-07-23 10:10:20 51°19.477 2°42.127 296.5 14.1 288 22.7
2004-07-23 10:10:24 51°19.481 2°42.103 296.7 14.1 287 22.6
2004-07-23 10:10:30 51°19.488 2°42.068 296.2 14.1 287 22.6
2004-07-23 10:10:40 51°19.5 2°42.008 295.7 14.1 287 22
2004-07-23 10:10:44 51°19.504 2°41.984 296.1 14.1 287 22.1
2004-07-23 10:10:50 51°19.511 2°41.948 295.9 14.1 287 21.9
2004-07-23 10:10:55 51°19.516 2°41.918 296.1 14.1 287 21.8
2004-07-23 10:11:00 51°19.523 2°41.888 296.1 14.1 288 21
2004-07-23 10:11:06 51°19.53 2°41.853 296.7 14 288 21.1
2004-07-23 10:11:10 51°19.534 2°41.829 296.8 14 288 21.1
2004-07-23 10:11:14 51°19.539 2°41.805 296.8 14.1 288 20.9
2004-07-23 10:11:20 51°19.546 2°41.769 296.5 14.1 287 20.6
2004-07-23 10:11:24 51°19.551 2°41.746 296.2 14.1 287 20.4
2004-07-23 10:11:31 51°19.559 2°41.704 296.1 14.1 287 19.4
2004-07-23 10:11:35 51°19.564 2°41.68 296.1 14.1 287 20.3
2004-07-23 10:11:40 51°19.569 2°41.65 296.1 14.1 288 18.2
2004-07-23 10:11:44 51°19.574 2°41.626 296.4 14.1 288 20
2004-07-23 10:11:50 51°19.581 2°41.591 296.4 14.1 288 18.9
2004-07-23 10:11:55 51°19.587 2°41.561 296.8 14.1 288 18.4
2004-07-23 10:12:00 51°19.593 2°41.531 296.9 14.1 288 19
2004-07-23 10:12:04 51°19.598 2°41.507 296.8 14.2 288 19.4
2004-07-23 10:12:10 51°19.605 2°41.471 296.8 14.2 288 17.9
2004-07-23 10:12:14 51°19.611 2°41.447 296.8 14.2 288 18.5
2004-07-23 10:12:20 51°19.618 2°41.411 296.9 14.3 288 18.6
2004-07-23 10:12:24 51°19.623 2°41.387 296.8 14.3 288 17.1
2004-07-23 10:12:30 51°19.63 2°41.351 296.8 14.3 288 18.4
2004-07-23 10:12:35 51°19.636 2°41.321 296.3 14.3 287 17.1
2004-07-23 10:12:40 51°19.641 2°41.29 296.1 14.3 287 18.2
2004-07-23 10:12:46 51°19.648 2°41.254 296 14.3 287 19
2004-07-23 10:12:50 51°19.653 2°41.229 295.6 14.4 287 16
2004-07-23 10:12:54 51°19.658 2°41.205 295.8 14.3 287 17.7
2004-07-23 10:13:00 51°19.665 2°41.169 296.1 14.3 288 18
2004-07-23 10:13:06 51°19.672 2°41.133 296.3 14.3 288 15.4
2004-07-23 10:13:11 51°19.679 2°41.103 296.9 14.3 288 17.3
2004-07-23 10:13:15 51°19.684 2°41.079 296.9 14.3 288 14.8
2004-07-23 10:13:20 51°19.69 2°41.049 296.8 14.3 288 18.7
2004-07-23 10:13:23 51°19.693 2°41.03 296.4 14.4 287 19.7
2004-07-23 10:13:32 51°19.704 2°40.976 296.1 14.4 287 18.1
2004-07-23 10:13:36 51°19.709 2°40.952 296.1 14.3 288 19.2
2004-07-23 10:13:42 51°19.716 2°40.915 295.8 14.3 287 19.8
2004-07-23 10:13:48 51°19.723 2°40.879 295.6 14.3 288 18.9
2004-07-23 10:13:52 51°19.728 2°40.855 296.1 14.3 288 18
2004-07-23 10:13:58 51°19.735 2°40.819 296.1 14.3 288 18.9
2004-07-23 10:14:03 51°19.741 2°40.789 296.2 14.3 288 18.7
2004-07-23 10:14:08 51°19.747 2°40.758 296.3 14.3 288 16.8
2004-07-23 10:14:11 51°19.751 2°40.74 296.1 14.4 288 15.5
2004-07-23 10:14:18 51°19.759 2°40.698 295.9 14.4 287 16.7
2004-07-23 10:14:23 51°19.765 2°40.667 295.6 14.4 287 16.5
2004-07-23 10:14:27 51°19.77 2°40.643 295.4 14.5 287 14.6
2004-07-23 10:14:30 51°19.774 2°40.625 295.5 14.5 287 13.1
2004-07-23 10:14:40 51°19.786 2°40.563 296 14.5 287 18.1
2004-07-23 10:14:44 51°19.791 2°40.539 296 14.6 287 19.6
2004-07-23 10:14:50 51°19.798 2°40.502 296.2 14.6 288 22.1
2004-07-23 10:14:54 51°19.803 2°40.477 296.6 14.6 288 24.3
2004-07-23 10:15:00 51°19.811 2°40.441 296.6 14.6 288 25.8
2004-07-23 10:15:06 51°19.818 2°40.404 296.7 14.5 288 26.6
2004-07-23 10:15:10 51°19.823 2°40.38 296.7 14.4 288 26.7
2004-07-23 10:15:14 51°19.828 2°40.355 296.8 14.4 287 26.7
2004-07-23 10:15:20 51°19.835 2°40.319 296.3 14.4 286 26.6
2004-07-23 10:15:24 51°19.839 2°40.294 295.7 14.4 287 26.7
2004-07-23 10:15:30 51°19.845 2°40.257 295.2 14.4 285 27.1
2004-07-23 10:15:34 51°19.85 2°40.233 294.7 14.4 286 27.3
2004-07-23 10:15:40 51°19.857 2°40.196 295.2 14.4 286 27.4
2004-07-23 10:15:44 51°19.861 2°40.172 295.7 14.4 287 27.4
2004-07-23 10:15:50 51°19.868 2°40.135 296.1 14.3 287 27.2
2004-07-23 10:15:54 51°19.873 2°40.111 296.3 14.3 287 27.1
2004-07-23 10:16:00 51°19.88 2°40.074 296.6 14.3 287 27.1
2004-07-23 10:16:04 51°19.884 2°40.05 296.7 14.3 287 27.1
2004-07-23 10:16:10 51°19.891 2°40.014 296.6 14.3 287 27.4
2004-07-23 10:16:14 51°19.896 2°39.989 296.7 14.3 287 27.5
2004-07-23 10:16:18 51°19.901 2°39.965 296.8 14.3 287 27.5
2004-07-23 10:16:24 51°19.908 2°39.929 296.8 14.3 287 27.6
2004-07-23 10:16:30 51°19.915 2°39.892 296.5 14.3 287 27.3
2004-07-23 10:16:34 51°19.919 2°39.868 296.7 14.3 287 27.5
2004-07-23 10:16:40 51°19.926 2°39.832 296.8 14.3 287 27.4
2004-07-23 10:16:46 51°19.934 2°39.795 296.7 14.3 287 27.4
2004-07-23 10:16:50 51°19.938 2°39.771 296.4 14.4 287 27.3
2004-07-23 10:16:54 51°19.943 2°39.747 296.1 14.3 287 27.4
2004-07-23 10:17:00 51°19.949 2°39.71 296.3 14.3 287 27.5
2004-07-23 10:17:04 51°19.954 2°39.686 296.1 14.3 287 27.7
2004-07-23 10:17:10 51°19.961 2°39.649 295.7 14.3 286 27.6
2004-07-23 10:17:14 51°19.965 2°39.625 295.8 14.3 287 27.9
2004-07-23 10:17:20 51°19.972 2°39.588 296.1 14.3 287 27.8
2004-07-23 10:17:24 51°19.977 2°39.564 296.6 14.3 287 27.7
2004-07-23 10:17:30 51°19.984 2°39.528 296.8 14.3 287 27.7
2004-07-23 10:17:34 51°19.989 2°39.504 296.5 14.2 287 27.3
2004-07-23 10:17:40 51°19.995 2°39.468 296.8 14.3 287 26.9
2004-07-23 10:17:44 51°20 2°39.443 296.8 14.3 287 26.6
2004-07-23 10:17:48 51°20.005 2°39.419 296.8 14.2 287 26.5
2004-07-23 10:17:54 51°20.012 2°39.383 296.8 14.3 287 26.1
2004-07-23 10:18:00 51°20.019 2°39.347 296.8 14.2 287 26.1
2004-07-23 10:18:04 51°20.024 2°39.323 296.9 14.2 288 25.9
2004-07-23 10:18:10 51°20.031 2°39.287 297 14.2 288 25.6
2004-07-23 10:18:14 51°20.036 2°39.263 297.2 14.2 287 25.3
2004-07-23 10:18:18 51°20.04 2°39.239 296.9 14.2 287 24.7
2004-07-23 10:18:26 51°20.05 2°39.19 297.1 14.2 288 24.8
2004-07-23 10:18:30 51°20.054 2°39.166 296.8 14.3 287 24.6
2004-07-23 10:18:34 51°20.059 2°39.142 296.2 14.3 287 24.5
2004-07-23 10:18:40 51°20.066 2°39.105 296 14.3 286 24.4
2004-07-23 10:18:44 51°20.07 2°39.081 295.6 14.3 286 24.3
2004-07-23 10:18:50 51°20.077 2°39.044 295.4 14.3 287 23.9
2004-07-23 10:18:54 51°20.081 2°39.02 295.7 14.3 286 23.6
2004-07-23 10:19:00 51°20.088 2°38.984 295.8 14.3 287 23.6
2004-07-23 10:19:06 51°20.095 2°38.947 296 14.3 287 23.4
2004-07-23 10:19:10 51°20.1 2°38.923 296.1 14.3 287 23.2
2004-07-23 10:19:14 51°20.104 2°38.899 296.4 14.3 287 22.4
2004-07-23 10:19:20 51°20.111 2°38.862 296.4 14.3 287 22.3
2004-07-23 10:19:24 51°20.116 2°38.838 296.8 14.2 287 22.7
2004-07-23 10:19:30 51°20.123 2°38.802 296.6 14.2 286 22.4
2004-07-23 10:19:34 51°20.127 2°38.778 296.1 14.3 286 23
2004-07-23 10:19:40 51°20.134 2°38.741 295.6 14.3 286 23.2
2004-07-23 10:19:44 51°20.138 2°38.717 295.2 14.3 286 23.3
2004-07-23 10:19:50 51°20.145 2°38.68 295.3 14.3 287 23.4
2004-07-23 10:19:54 51°20.15 2°38.656 295.8 14.3 287 23.5
2004-07-23 10:20:00 51°20.157 2°38.62 296.4 14.2 287 23.2
2004-07-23 10:20:04 51°20.162 2°38.596 296.8 14.3 288 22.9
2004-07-23 10:20:10 51°20.169 2°38.56 297.1 14.3 288 22.9
2004-07-23 10:20:14 51°20.173 2°38.536 297.2 14.3 287 22.9
2004-07-23 10:20:20 51°20.181 2°38.499 296.8 14.3 287 22.9
2004-07-23 10:20:24 51°20.185 2°38.475 296.4 14.3 287 20.9
2004-07-23 10:20:30 51°20.193 2°38.439 296.6 14.3 288 22.6
2004-07-23 10:20:34 51°20.197 2°38.415 296.8 14.3 288 23.1
2004-07-23 10:20:40 51°20.204 2°38.379 296.8 14.3 288 23.3
2004-07-23 10:20:44 51°20.209 2°38.354 296.8 14.3 287 23.1
2004-07-23 10:20:50 51°20.216 2°38.318 296.6 14.3 287 22.7
2004-07-23 10:20:54 51°20.221 2°38.294 296.4 14.3 287 21.6
2004-07-23 10:21:00 51°20.228 2°38.257 295.9 14.4 286 22.9
2004-07-23 10:21:04 51°20.232 2°38.233 295.5 14.3 287 23.2
2004-07-23 10:21:10 51°20.239 2°38.197 295.8 14.3 287 23
2004-07-23 10:21:14 51°20.244 2°38.173 296 14.3 288 22.9
2004-07-23 10:21:20 51°20.251 2°38.136 296.6 14.3 287 22.6
2004-07-23 10:21:26 51°20.258 2°38.1 296.4 14.3 287 22.9
2004-07-23 10:21:30 51°20.263 2°38.076 296.4 14.2 287 22.8
2004-07-23 10:21:34 51°20.268 2°38.052 296.5 14.2 287 22.5
2004-07-23 10:21:40 51°20.274 2°38.015 296.4 14.2 287 21.6
2004-07-23 10:21:44 51°20.279 2°37.991 296.1 14.3 287 20.1
2004-07-23 10:21:50 51°20.286 2°37.955 295.8 14.2 287 22.1
2004-07-23 10:21:54 51°20.29 2°37.93 295.8 14.2 287 22.7
2004-07-23 10:22:00 51°20.297 2°37.894 296.1 14.2 287 22.4
2004-07-23 10:22:06 51°20.304 2°37.858 296.6 14.2 287 22.1
2004-07-23 10:22:10 51°20.309 2°37.834 296.7 14.2 287 22
2004-07-23 10:22:14 51°20.314 2°37.81 296.6 14.2 287 21.8
2004-07-23 10:22:20 51°20.321 2°37.774 296.4 14.2 287 20.4
2004-07-23 10:22:24 51°20.325 2°37.749 295.9 14.2 286 21.7
2004-07-23 10:22:28 51°20.33 2°37.725 295.6 14.3 286 21.8
2004-07-23 10:22:34 51°20.337 2°37.689 295.6 14.3 287 20.7
2004-07-23 10:22:39 51°20.343 2°37.659 296.3 14.2 288 22.1
2004-07-23 10:22:46 51°20.351 2°37.617 296.8 14.2 288 22
2004-07-23 10:22:50 51°20.355 2°37.593 296.9 14.3 288 21.5
2004-07-23 10:22:54 51°20.36 2°37.569 296.6 14.3 287 21.1
2004-07-23 10:23:00 51°20.367 2°37.532 295.9 14.3 287 22.4
2004-07-23 10:23:04 51°20.372 2°37.508 296.1 14.2 287 22
2004-07-23 10:23:08 51°20.377 2°37.484 296.8 14.2 288 20.9
2004-07-23 10:23:20 51°20.392 2°37.413 298.3 14.2 289 21.7
2004-07-23 10:23:23 51°20.396 2°37.395 298.9 14.2 290 21.1
2004-07-23 10:23:30 51°20.406 2°37.354 299.2 14.3 290 20
2004-07-23 10:23:34 51°20.411 2°37.33 299.4 14.2 290 21.5
2004-07-23 10:23:39 51°20.418 2°37.301 299.6 14.2 290 22.3
2004-07-23 10:23:44 51°20.425 2°37.271 300.1 14.2 291 22.3
2004-07-23 10:23:50 51°20.433 2°37.236 300.5 14.2 291 22.1
2004-07-23 10:23:54 51°20.439 2°37.212 300.5 14.2 291 21.3
2004-07-23 10:23:59 51°20.446 2°37.183 300.3 14.2 290 22.1
2004-07-23 10:24:03 51°20.451 2°37.159 299.8 14.2 290 22
2004-07-23 10:24:10 51°20.461 2°37.118 299.7 14.2 292 22.2
2004-07-23 10:24:14 51°20.467 2°37.095 301.2 14.2 293 21.9
2004-07-23 10:24:19 51°20.476 2°37.067 303.1 14.1 294 21.4
2004-07-23 10:24:25 51°20.485 2°37.032 304.1 14.1 294 21.7
2004-07-23 10:24:29 51°20.492 2°37.01 304.7 14.1 296 22.2
2004-07-23 10:24:34 51°20.501 2°36.982 305.2 14.1 296 21.8
2004-07-23 10:24:39 51°20.509 2°36.954 305.8 14.1 296 20.7
2004-07-23 10:24:43 51°20.516 2°36.932 306.2 14.1 296 21.4
2004-07-23 10:24:49 51°20.527 2°36.899 306.9 14.1 297 21.7
2004-07-23 10:24:53 51°20.535 2°36.877 308 14.1 298 20.6
2004-07-23 10:24:59 51°20.546 2°36.844 308.1 14.1 298 21.1
2004-07-23 10:25:03 51°20.553 2°36.822 308.3 14.1 299 21.1
2004-07-23 10:25:09 51°20.565 2°36.789 308.6 14.1 300 21.3
2004-07-23 10:25:14 51°20.575 2°36.763 309.8 14.1 301 21.1
2004-07-23 10:25:20 51°20.587 2°36.731 310.9 14 301 20.5
2004-07-23 10:25:23 51°20.593 2°36.715 311.8 14 302 20.5
2004-07-23 10:25:30 51°20.608 2°36.679 312.7 13.9 303 19.8
2004-07-23 10:25:34 51°20.616 2°36.658 313.2 14 303 20.2
2004-07-23 10:25:39 51°20.627 2°36.633 313.3 13.9 303 20.6
2004-07-23 10:25:43 51°20.635 2°36.612 313.5 14 302 20.9
2004-07-23 10:25:49 51°20.648 2°36.581 313.1 13.9 303 20.7
2004-07-23 10:25:54 51°20.658 2°36.555 312.9 14 302 20.1
2004-07-23 10:25:59 51°20.669 2°36.529 312.8 13.9 303 19.9
2004-07-23 10:26:05 51°20.681 2°36.497 313 14 302 20.5
2004-07-23 10:26:10 51°20.692 2°36.472 313 14 303 20.6
2004-07-23 10:26:14 51°20.7 2°36.451 313.5 14 303 20.3
2004-07-23 10:26:19 51°20.711 2°36.425 313.5 14 303 20.1
2004-07-23 10:26:25 51°20.724 2°36.394 313.6 14 303 20.6
2004-07-23 10:26:30 51°20.735 2°36.369 313.7 14 304 20.3
2004-07-23 10:26:34 51°20.743 2°36.348 313.7 14 303 20.6
2004-07-23 10:26:39 51°20.754 2°36.322 313.4 14 303 20.1
2004-07-23 10:26:44 51°20.764 2°36.296 313.2 14 303 21.2
2004-07-23 10:26:50 51°20.777 2°36.264 312.9 14 302 21.7
2004-07-23 10:26:54 51°20.785 2°36.244 312.5 14 303 22.1
2004-07-23 10:26:59 51°20.796 2°36.218 312.3 14 303 21.3
2004-07-23 10:27:04 51°20.807 2°36.192 312.7 14 304 21.5
2004-07-23 10:27:10 51°20.82 2°36.162 314.4 13.9 306 22.6
2004-07-23 10:27:14 51°20.83 2°36.142 316.5 14 307 22.7
2004-07-23 10:27:20 51°20.844 2°36.113 317.9 13.9 308 23.3
2004-07-23 10:27:24 51°20.854 2°36.095 319.3 13.8 310 23.2
2004-07-23 10:27:30 51°20.868 2°36.066 320 13.8 310 24.2
2004-07-23 10:27:34 51°20.879 2°36.048 320.3 13.8 311 24.1
2004-07-23 10:27:40 51°20.894 2°36.02 321.3 13.8 310 24.6
2004-07-23 10:27:44 51°20.904 2°36.001 321.2 13.8 310 25
2004-07-23 10:27:51 51°20.921 2°35.968 320.8 13.8 310 25
2004-07-23 10:27:56 51°20.934 2°35.946 321.1 13.7 312 25.3
2004-07-23 10:28:00 51°20.944 2°35.928 322.3 13.7 312 26
2004-07-23 10:28:04 51°20.955 2°35.911 324.2 13.6 315 26.4
2004-07-23 10:28:10 51°20.971 2°35.887 326.4 13.4 318 26.7
2004-07-23 10:28:14 51°20.983 2°35.873 329.3 13.3 321 26.9
2004-07-23 10:28:18 51°20.995 2°35.859 332.4 13.3 322 27.1
2004-07-23 10:28:26 51°21.019 2°35.832 334.1 13.2 323 27.6
2004-07-23 10:28:30 51°21.031 2°35.819 336 13.2 325 27.4
2004-07-23 10:28:34 51°21.043 2°35.805 337.1 13.1 326 27.1
2004-07-23 10:28:40 51°21.061 2°35.786 337.6 13.2 326 27.4
2004-07-23 10:28:44 51°21.073 2°35.773 338.2 13.1 327 27.4
2004-07-23 10:28:50 51°21.091 2°35.754 338.2 13.1 327 28.1
2004-07-23 10:28:55 51°21.107 2°35.738 338.5 13.1 327 27.8
2004-07-23 10:29:00 51°21.121 2°35.721 338.4 13.2 326 28.3
2004-07-23 10:29:04 51°21.134 2°35.707 336.4 13.2 323 29.4
2004-07-23 10:29:10 51°21.151 2°35.685 335.1 13.3 322 30.3
2004-07-23 10:29:15 51°21.166 2°35.667 333.9 13.3 322 30.7
2004-07-23 10:29:20 51°21.18 2°35.648 333.5 13.3 321 31
2004-07-23 10:29:24 51°21.191 2°35.633 332.7 13.4 320 31.5
2004-07-23 10:29:31 51°21.211 2°35.607 332.4 13.4 320 31.7
2004-07-23 10:29:35 51°21.223 2°35.592 331.9 13.4 320 31.7
2004-07-23 10:29:40 51°21.237 2°35.572 332 13.4 320 32.5
2004-07-23 10:29:44 51°21.249 2°35.557 332 13.3 321 33.1
2004-07-23 10:29:48 51°21.26 2°35.543 332.4 13.3 321 33.3
2004-07-23 10:29:54 51°21.278 2°35.52 332.7 13.3 322 33.9
2004-07-23 10:30:00 51°21.295 2°35.498 333.1 13.3 321 34
2004-07-23 10:30:04 51°21.306 2°35.484 333.1 13.3 322 33.7
2004-07-23 10:30:11 51°21.326 2°35.457 333.1 13.4 321 33.7
2004-07-23 10:30:15 51°21.338 2°35.442 332.8 13.3 321 33.5
2004-07-23 10:30:19 51°21.349 2°35.427 332.4 13.4 320 32.9
2004-07-23 10:30:26 51°21.37 2°35.401 332 13.3 321 32.1
2004-07-23 10:30:30 51°21.381 2°35.386 332 13.4 320 31.5
2004-07-23 10:30:35 51°21.395 2°35.367 331.4 13.4 320 31.4
2004-07-23 10:30:40 51°21.41 2°35.348 331.2 13.5 319 30.9
2004-07-23 10:30:46 51°21.427 2°35.326 331.1 13.4 320 31.1
2004-07-23 10:30:51 51°21.441 2°35.307 330.9 13.4 319 31.2
2004-07-23 10:30:55 51°21.453 2°35.292 331.1 13.4 320 31
2004-07-23 10:31:00 51°21.467 2°35.272 330.9 13.4 319 30.7
2004-07-23 10:31:04 51°21.478 2°35.257 331.3 13.4 320 30.3
2004-07-23 10:31:10 51°21.495 2°35.232 331.6 13.4 319 30.1
2004-07-23 10:31:14 51°21.506 2°35.217 331.9 13.3 321 30.2
2004-07-23 10:31:20 51°21.523 2°35.193 332.1 13.4 320 30.5
2004-07-23 10:31:25 51°21.537 2°35.175 332 13.3 320 30.6
2004-07-23 10:31:30 51°21.551 2°35.155 332.2 13.3 320 30.6
2004-07-23 10:31:34 51°21.563 2°35.141 332 13.3 321 30.6
2004-07-23 10:31:40 51°21.58 2°35.118 332.2 13.4 320 30.6
2004-07-23 10:31:44 51°21.591 2°35.103 331.9 13.4 320 30.3
2004-07-23 10:31:50 51°21.608 2°35.079 331.6 13.4 319 30.1
2004-07-23 10:31:54 51°21.619 2°35.064 331.2 13.4 319 29.8
2004-07-23 10:32:00 51°21.636 2°35.04 330.9 13.4 319 29.8
2004-07-23 10:32:04 51°21.647 2°35.025 331.1 13.4 320 29.6
2004-07-23 10:32:08 51°21.659 2°35.01 331.6 13.4 320 29.5
2004-07-23 10:32:14 51°21.676 2°34.987 331.7 13.4 320 29.5
2004-07-23 10:32:20 51°21.693 2°34.965 332.3 13.3 321 29.5
2004-07-23 10:32:24 51°21.705 2°34.95 332.4 13.3 321 29.7
2004-07-23 10:32:30 51°21.722 2°34.928 333 13.3 322 29.3
2004-07-23 10:32:34 51°21.734 2°34.914 333.1 13.3 321 29.3
2004-07-23 10:32:38 51°21.746 2°34.899 332.9 13.3 321 29.3
2004-07-23 10:32:46 51°21.768 2°34.868 332 13.4 320 29.6
2004-07-23 10:32:50 51°21.779 2°34.853 331.6 13.4 320 29.6
2004-07-23 10:32:54 51°21.79 2°34.837 331.6 13.4 320 30.5
2004-07-23 10:33:00 51°21.808 2°34.815 331.6 13.4 320 30.5
2004-07-23 10:33:06 51°21.825 2°34.792 331.6 13.4 320 30.2
2004-07-23 10:33:10 51°21.837 2°34.777 331.6 13.4 320 30.3
2004-07-23 10:33:14 51°21.848 2°34.761 331.3 13.4 320 30
2004-07-23 10:33:19 51°21.862 2°34.742 331.1 13.4 320 29.6
2004-07-23 10:33:26 51°21.882 2°34.715 331.4 13.4 320 29.4
2004-07-23 10:33:31 51°21.896 2°34.696 331.5 13.4 320 29.3
2004-07-23 10:33:34 51°21.904 2°34.685 331.6 13.4 320 29
2004-07-23 10:33:40 51°21.921 2°34.662 331.6 13.4 320 28.8
2004-07-23 10:33:44 51°21.933 2°34.646 331.5 13.4 320 28.2
2004-07-23 10:33:50 51°21.95 2°34.623 331.2 13.4 320 28.8
2004-07-23 10:33:54 51°21.961 2°34.608 330.9 13.4 320 29
2004-07-23 10:34:00 51°21.978 2°34.584 331 13.4 320 29
2004-07-23 10:34:04 51°21.989 2°34.569 331 13.4 319 28.9
2004-07-23 10:34:16 51°22.021 2°34.518 327.8 13.5 315 28.5
2004-07-23 10:34:22 51°22.036 2°34.492 325.8 13.6 314 28.1
2004-07-23 10:34:26 51°22.047 2°34.474 324.3 13.6 312 27.1
2004-07-23 10:34:31 51°22.059 2°34.451 323.2 13.7 310 26.6
2004-07-23 10:34:36 51°22.071 2°34.427 322.2 13.7 310 26.2
2004-07-23 10:34:42 51°22.086 2°34.399 321.5 13.7 310 26.2
2004-07-23 10:34:46 51°22.095 2°34.381 321.2 13.7 310 26.1
2004-07-23 10:34:50 51°22.105 2°34.362 321.2 13.7 309 25.7
2004-07-23 10:34:56 51°22.12 2°34.334 320.8 13.7 310 26
2004-07-23 10:35:02 51°22.134 2°34.305 320.8 13.7 310 24.8
2004-07-23 10:35:06 51°22.144 2°34.287 321.2 13.7 310 24.1
2004-07-23 10:35:10 51°22.154 2°34.269 321.5 13.7 310 23.6
2004-07-23 10:35:16 51°22.169 2°34.242 321.5 13.7 310 23.8
2004-07-23 10:35:22 51°22.184 2°34.214 321.7 13.6 310 24.3
2004-07-23 10:35:26 51°22.194 2°34.196 321.5 13.6 309 24.2
2004-07-23 10:35:30 51°22.203 2°34.176 320.5 13.7 308 23.9
2004-07-23 10:35:36 51°22.216 2°34.147 319.3 13.7 307 23.5
2004-07-23 10:35:42 51°22.23 2°34.117 317.9 13.7 306 22.9
2004-07-23 10:35:46 51°22.238 2°34.097 317.1 13.8 304 23
2004-07-23 10:35:50 51°22.247 2°34.077 315.6 13.7 304 22.9
2004-07-23 10:35:56 51°22.259 2°34.045 314.4 13.8 303 23.4
2004-07-23 10:36:00 51°22.267 2°34.024 312.8 13.8 301 23.8
2004-07-23 10:36:06 51°22.278 2°33.992 310.6 13.9 299 24.1
2004-07-23 10:36:10 51°22.285 2°33.97 309 14 298 24
2004-07-23 10:36:16 51°22.295 2°33.936 307.7 14 297 24
2004-07-23 10:36:20 51°22.302 2°33.913 306.1 14.1 295 24
2004-07-23 10:36:26 51°22.311 2°33.879 304.9 14.1 294 24.1
2004-07-23 10:36:30 51°22.317 2°33.856 304 14.1 293 25.3
2004-07-23 10:36:36 51°22.326 2°33.821 302.7 14.2 292 26.7
2004-07-23 10:36:42 51°22.335 2°33.786 301.9 14.2 292 28.1
2004-07-23 10:36:45 51°22.339 2°33.768 301.3 14.2 291 28.4
2004-07-23 10:36:50 51°22.347 2°33.739 301.2 14.2 291 28.8
2004-07-23 10:36:55 51°22.353 2°33.709 300.7 14.2 290 29.1
2004-07-23 10:36:59 51°22.359 2°33.686 300 14.1 290 29.5
2004-07-23 10:37:05 51°22.366 2°33.65 298.8 14.2 289 29.6
2004-07-23 10:37:10 51°22.373 2°33.62 298.1 14.2 289 29.8
2004-07-23 10:37:15 51°22.379 2°33.59 297.6 14.2 288 30.1
2004-07-23 10:37:21 51°22.386 2°33.555 297.2 14.2 288 30.2
2004-07-23 10:37:25 51°22.391 2°33.531 297 14.2 288 30.2